Time;durP1;ratioP1;P1;durP2;ratioP2;P2;SDS_P1;SDS_P2;PMS_P1;PMS_P2;Temp;Humidity;BMP_temperature;BMP_pressure;BME280_temperature;BME280_humidity;BME280_pressure;Samples;Min_cycle;Max_cycle;Signal;HPM_P1;HPM_P2
2022/01/24 00:00:34;;;;;;;8.07;4.20;;;;;;;;;;5047442;28;20044;-74
2022/01/24 00:03:00;;;;;;;7.85;3.85;;;;;;;;;;5072852;28;20052;-74
2022/01/24 00:05:26;;;;;;;7.40;3.90;;;;;;;;;;5072611;28;20040;-74
2022/01/24 00:07:52;;;;;;;6.53;3.92;;;;;;;;;;5056184;28;20487;-74
2022/01/24 00:10:22;;;;;;;6.20;4.20;;;;;;;;;;5056095;28;20447;-74
2022/01/24 00:17:50;;;;;;;10.10;4.63;;;;;;;;;;5072840;28;20041;-74
2022/01/24 00:28:14;;;;;;;6.95;4.50;;;;;;;;;;5072507;28;20049;-74
2022/01/24 00:30:40;;;;;;;9.52;4.70;;;;;;;;;;5056145;28;20040;-74
2022/01/24 00:33:07;;;;;;;9.00;4.72;;;;;;;;;;5072469;28;20131;-74
2022/01/24 00:35:33;;;;;;;8.35;4.70;;;;;;;;;;5055692;28;20076;-74
2022/01/24 00:38:01;;;;;;;7.28;3.90;;;;;;;;;;5055708;28;20079;-74
2022/01/24 00:40:28;;;;;;;9.02;4.72;;;;;;;;;;5072301;28;20488;-74
2022/01/24 00:42:58;;;;;;;8.02;4.60;;;;;;;;;;5072113;28;20036;-74
2022/01/24 00:45:53;;;;;;;8.55;4.57;;;;;;;;;;5072381;28;20076;-74
2022/01/24 00:48:39;;;;;;;9.93;5.25;;;;;;;;;;5071998;28;20047;-74
2022/01/24 00:54:42;;;;;;;10.40;5.25;;;;;;;;;;5072086;28;20066;-74
2022/01/24 00:56:44;;;;;;;10.40;6.13;;;;;;;;;;5071303;28;20047;-74
2022/01/24 00:59:10;;;;;;;10.70;6.30;;;;;;;;;;5072166;28;20408;-74
2022/01/24 01:01:36;;;;;;;12.15;7.15;;;;;;;;;;5055139;28;20451;-74
2022/01/24 01:04:02;;;;;;;15.57;6.10;;;;;;;;;;5054968;28;20415;-75
2022/01/24 01:06:28;;;;;;;12.50;5.90;;;;;;;;;;5072168;28;20083;-74
2022/01/24 01:19:52;;;;;;;12.02;6.15;;;;;;;;;;5071641;28;20059;-74
2022/01/24 01:22:19;;;;;;;11.65;5.95;;;;;;;;;;5071588;28;20076;-74
2022/01/24 01:24:50;;;;;;;12.35;6.50;;;;;;;;;;5054740;28;20041;-74
2022/01/24 01:27:22;;;;;;;12.10;6.15;;;;;;;;;;5071371;28;20501;-74
2022/01/24 01:30:06;;;;;;;15.18;6.88;;;;;;;;;;5071288;28;20060;-74
2022/01/24 01:32:55;;;;;;;13.05;6.30;;;;;;;;;;5071638;28;20040;-75
2022/01/24 01:35:38;;;;;;;13.45;6.32;;;;;;;;;;5071371;28;20048;-74
2022/01/24 01:57:12;;;;;;;15.63;7.03;;;;;;;;;;5070773;28;20051;-74
2022/01/24 01:59:38;;;;;;;14.90;7.28;;;;;;;;;;5070799;28;20518;-74
2022/01/24 02:02:04;;;;;;;15.40;7.78;;;;;;;;;;5070574;28;20131;-74
2022/01/24 02:04:30;;;;;;;14.90;7.07;;;;;;;;;;5054310;28;20045;-74
2022/01/24 02:06:56;;;;;;;17.45;7.65;;;;;;;;;;5070691;28;20044;-74
2022/01/24 02:09:28;;;;;;;15.48;7.35;;;;;;;;;;5054008;28;20543;-74
2022/01/24 02:11:54;;;;;;;13.00;6.85;;;;;;;;;;5070767;28;20063;-74
2022/01/24 02:14:21;;;;;;;17.13;7.20;;;;;;;;;;5070546;28;20503;-74
2022/01/24 02:16:54;;;;;;;15.90;7.78;;;;;;;;;;5070686;28;20706;-74
2022/01/24 02:22:41;;;;;;;14.95;7.88;;;;;;;;;;5055090;28;20071;-74
2022/01/24 02:25:11;;;;;;;15.68;7.28;;;;;;;;;;5070152;28;20412;-74
2022/01/24 02:27:45;;;;;;;14.23;6.50;;;;;;;;;;5053589;28;20397;-74
2022/01/24 02:33:01;;;;;;;15.80;6.57;;;;;;;;;;5051164;28;20036;-74
2022/01/24 02:35:27;;;;;;;11.13;6.50;;;;;;;;;;5070526;28;20190;-74
2022/01/24 02:37:53;;;;;;;9.73;5.60;;;;;;;;;;5070229;28;20032;-74
2022/01/24 02:40:21;;;;;;;13.75;6.50;;;;;;;;;;5053736;28;20080;-74
2022/01/24 02:48:28;;;;;;;12.93;6.13;;;;;;;;;;5031282;28;20053;-74
2022/01/24 02:51:23;;;;;;;13.55;6.32;;;;;;;;;;5066100;28;20063;-74
2022/01/24 02:53:49;;;;;;;13.05;5.72;;;;;;;;;;5066644;28;20072;-74
2022/01/24 02:56:15;;;;;;;13.57;6.35;;;;;;;;;;5050143;28;20044;-73
2022/01/24 02:58:41;;;;;;;11.20;5.95;;;;;;;;;;5049953;28;20044;-74
2022/01/24 03:01:07;;;;;;;13.70;7.53;;;;;;;;;;5066526;28;20095;-73
2022/01/24 03:03:34;;;;;;;13.18;6.50;;;;;;;;;;5049752;28;20501;-74
2022/01/24 03:06:00;;;;;;;9.55;6.35;;;;;;;;;;5066418;28;20176;-74
2022/01/24 03:08:26;;;;;;;13.35;6.57;;;;;;;;;;5070615;28;20073;-74
2022/01/24 03:10:53;;;;;;;10.90;5.78;;;;;;;;;;5053873;28;20032;-74
2022/01/24 03:15:52;;;;;;;12.15;6.43;;;;;;;;;;5070751;28;20504;-74
2022/01/24 03:18:19;;;;;;;14.48;6.97;;;;;;;;;;5053486;28;20105;-74
2022/01/24 03:20:45;;;;;;;15.50;6.78;;;;;;;;;;5070217;28;20445;-74
2022/01/24 03:23:12;;;;;;;13.50;6.97;;;;;;;;;;5071994;28;20417;-74
2022/01/24 03:25:38;;;;;;;13.25;7.22;;;;;;;;;;5073919;28;20075;-74
2022/01/24 03:28:04;;;;;;;17.98;7.40;;;;;;;;;;5073693;28;20078;-74
2022/01/24 03:30:31;;;;;;;13.80;6.68;;;;;;;;;;5073384;28;20595;-74
2022/01/24 03:32:57;;;;;;;16.60;7.45;;;;;;;;;;5057061;28;20082;-74
2022/01/24 03:35:23;;;;;;;14.25;7.20;;;;;;;;;;5057007;28;20071;-74
2022/01/24 03:37:49;;;;;;;14.60;6.68;;;;;;;;;;5057177;28;20036;-74
2022/01/24 03:40:15;;;;;;;15.35;7.50;;;;;;;;;;5073951;28;20059;-74
2022/01/24 03:42:41;;;;;;;14.73;7.25;;;;;;;;;;5056970;28;20309;-74
2022/01/24 03:45:09;;;;;;;16.30;7.43;;;;;;;;;;5073266;28;20102;-74
2022/01/24 03:50:03;;;;;;;14.77;7.28;;;;;;;;;;5073295;28;20044;-74
2022/01/24 03:52:30;;;;;;;15.32;7.40;;;;;;;;;;5056729;28;20043;-74
2022/01/24 03:54:57;;;;;;;16.05;7.90;;;;;;;;;;5073289;28;20036;-74
2022/01/24 03:57:23;;;;;;;18.52;7.35;;;;;;;;;;5073353;28;20041;-74
2022/01/24 03:59:49;;;;;;;17.30;7.63;;;;;;;;;;5073111;28;20389;-74
2022/01/24 04:02:16;;;;;;;18.20;8.05;;;;;;;;;;5072658;28;20071;-74
2022/01/24 04:04:42;;;;;;;17.67;7.88;;;;;;;;;;5071765;28;20048;-74
2022/01/24 04:07:08;;;;;;;16.92;8.60;;;;;;;;;;5071718;28;20545;-74
2022/01/24 04:09:35;;;;;;;17.45;7.93;;;;;;;;;;5054944;28;20045;-74
2022/01/24 04:12:03;;;;;;;20.38;8.07;;;;;;;;;;5071545;28;20037;-74
2022/01/24 04:14:42;;;;;;;14.88;7.72;;;;;;;;;;5071663;28;20076;-74
2022/01/24 04:22:07;;;;;;;19.73;9.40;;;;;;;;;;5071840;28;20052;-74
2022/01/24 04:24:33;;;;;;;21.08;9.38;;;;;;;;;;5071445;28;20090;-74
2022/01/24 04:26:59;;;;;;;19.77;8.57;;;;;;;;;;5071783;28;20040;-74
2022/01/24 04:29:25;;;;;;;22.48;9.93;;;;;;;;;;5054695;28;20040;-74
2022/01/24 04:31:51;;;;;;;17.33;8.90;;;;;;;;;;5071640;28;20032;-74
2022/01/24 04:34:17;;;;;;;20.88;9.55;;;;;;;;;;5071720;28;20063;-74
2022/01/24 04:36:43;;;;;;;23.90;9.25;;;;;;;;;;5071394;28;20115;-74
2022/01/24 04:39:09;;;;;;;19.85;8.57;;;;;;;;;;5071255;28;20076;-74
2022/01/24 04:41:39;;;;;;;20.30;9.05;;;;;;;;;;5054496;28;20040;-74
2022/01/24 04:52:21;;;;;;;23.88;10.27;;;;;;;;;;5071172;28;20092;-74
2022/01/24 04:54:47;;;;;;;21.70;9.68;;;;;;;;;;5071267;28;20044;-74
2022/01/24 04:57:15;;;;;;;20.42;10.32;;;;;;;;;;5054447;28;20032;-74
2022/01/24 04:59:41;;;;;;;26.25;10.18;;;;;;;;;;5070939;28;20044;-74
2022/01/24 05:02:08;;;;;;;20.33;8.60;;;;;;;;;;5017952;28;1032409;-74
2022/01/24 05:04:35;;;;;;;23.92;10.18;;;;;;;;;;5055288;28;20131;-74
2022/01/24 05:07:01;;;;;;;19.40;8.82;;;;;;;;;;5071837;28;20447;-74
2022/01/24 05:09:31;;;;;;;22.08;9.10;;;;;;;;;;5071464;28;20075;-74
2022/01/24 05:12:04;;;;;;;23.38;8.95;;;;;;;;;;5071691;28;20040;-74
2022/01/24 05:25:28;;;;;;;21.42;9.63;;;;;;;;;;5071378;28;20059;-74
2022/01/24 05:27:54;;;;;;;21.00;9.60;;;;;;;;;;5054817;28;20040;-74
2022/01/24 05:30:20;;;;;;;22.20;10.15;;;;;;;;;;5070516;28;20051;-74
2022/01/24 05:32:46;;;;;;;17.50;8.45;;;;;;;;;;5054719;28;20569;-74
2022/01/24 05:35:12;;;;;;;20.15;9.52;;;;;;;;;;5071285;28;20044;-74
2022/01/24 05:37:38;;;;;;;21.08;9.45;;;;;;;;;;5071101;28;20518;-74
2022/01/24 05:40:04;;;;;;;23.27;9.80;;;;;;;;;;5071381;28;20044;-74
2022/01/24 05:42:30;;;;;;;18.50;8.95;;;;;;;;;;5071123;28;20048;-74
2022/01/24 05:44:58;;;;;;;21.63;9.68;;;;;;;;;;5071081;28;20043;-74
2022/01/24 05:47:24;;;;;;;21.23;9.60;;;;;;;;;;5054314;28;20044;-74
2022/01/24 05:49:50;;;;;;;24.27;10.60;;;;;;;;;;5054360;28;20036;-74
2022/01/24 05:52:16;;;;;;;21.40;9.05;;;;;;;;;;5070852;28;20032;-74
2022/01/24 05:54:42;;;;;;;20.15;8.70;;;;;;;;;;5071256;28;20396;-74
2022/01/24 05:57:09;;;;;;;18.23;8.40;;;;;;;;;;5054180;28;20044;-74
2022/01/24 05:59:35;;;;;;;18.65;8.27;;;;;;;;;;5070892;28;20405;-74
2022/01/24 06:02:01;;;;;;;19.85;8.20;;;;;;;;;;5070535;28;20511;-74
2022/01/24 06:04:27;;;;;;;19.10;9.00;;;;;;;;;;5070698;28;20060;-74
2022/01/24 06:06:53;;;;;;;15.45;6.97;;;;;;;;;;5070766;28;20059;-74
2022/01/24 06:09:19;;;;;;;20.58;8.35;;;;;;;;;;5070562;28;20599;-74
2022/01/24 06:11:45;;;;;;;20.08;8.05;;;;;;;;;;5054017;28;20036;-74
2022/01/24 06:14:11;;;;;;;16.90;8.27;;;;;;;;;;5070559;28;20036;-74
2022/01/24 06:16:37;;;;;;;21.35;9.70;;;;;;;;;;5071031;28;20044;-74
2022/01/24 06:19:03;;;;;;;18.13;9.07;;;;;;;;;;5070383;28;20457;-74
2022/01/24 06:21:29;;;;;;;15.60;7.15;;;;;;;;;;5070393;28;20036;-74
2022/01/24 06:23:55;;;;;;;16.45;7.43;;;;;;;;;;5053705;28;20036;-74
2022/01/24 06:26:21;;;;;;;14.90;7.10;;;;;;;;;;5070737;28;20484;-74
2022/01/24 06:28:47;;;;;;;18.17;7.75;;;;;;;;;;5053683;28;20044;-74
2022/01/24 06:31:13;;;;;;;16.80;7.78;;;;;;;;;;5054117;28;20040;-74
2022/01/24 06:33:40;;;;;;;15.30;6.70;;;;;;;;;;5053538;28;20090;-74
2022/01/24 06:36:06;;;;;;;14.90;7.35;;;;;;;;;;5052935;28;20048;-74
2022/01/24 06:38:32;;;;;;;12.93;6.47;;;;;;;;;;5069615;28;20032;-74
2022/01/24 06:40:58;;;;;;;15.23;6.97;;;;;;;;;;5053408;28;20052;-74
2022/01/24 06:43:24;;;;;;;16.88;6.95;;;;;;;;;;5053357;28;20404;-74
2022/01/24 06:45:50;;;;;;;15.35;7.03;;;;;;;;;;5070413;28;20040;-74
2022/01/24 06:48:17;;;;;;;15.55;7.32;;;;;;;;;;5053652;28;20072;-74
2022/01/24 06:50:43;;;;;;;13.32;7.13;;;;;;;;;;5054005;28;20042;-74
2022/01/24 06:53:09;;;;;;;18.92;7.07;;;;;;;;;;5054102;28;20408;-74
2022/01/24 06:55:35;;;;;;;16.77;7.30;;;;;;;;;;5070845;28;20488;-74
2022/01/24 06:58:01;;;;;;;21.17;8.38;;;;;;;;;;5053765;28;20033;-74
2022/01/24 07:00:29;;;;;;;17.88;7.65;;;;;;;;;;5070185;28;20141;-74
2022/01/24 07:02:56;;;;;;;16.70;7.90;;;;;;;;;;5052993;28;20055;-74
2022/01/24 07:05:22;;;;;;;16.42;6.65;;;;;;;;;;5070014;28;20044;-74
2022/01/24 07:07:48;;;;;;;13.38;6.75;;;;;;;;;;5053596;28;20098;-74
2022/01/24 07:10:14;;;;;;;15.52;7.93;;;;;;;;;;5053156;28;20127;-74
2022/01/24 07:12:40;;;;;;;22.25;8.48;;;;;;;;;;5070204;28;20045;-74
2022/01/24 07:15:13;;;;;;;17.35;7.50;;;;;;;;;;5069935;28;20404;-75
2022/01/24 07:20:16;;;;;;;17.83;7.57;;;;;;;;;;5069808;28;20048;-74
2022/01/24 07:22:42;;;;;;;14.75;7.85;;;;;;;;;;5053117;28;20456;-74
2022/01/24 07:25:08;;;;;;;19.75;7.57;;;;;;;;;;5053308;28;20036;-74
2022/01/24 07:27:34;;;;;;;18.02;8.07;;;;;;;;;;5053056;28;20534;-74
2022/01/24 07:30:01;;;;;;;17.33;7.43;;;;;;;;;;5053218;28;20098;-74
2022/01/24 07:32:28;;;;;;;18.17;7.82;;;;;;;;;;5069732;28;20124;-74
2022/01/24 07:34:54;;;;;;;16.15;8.65;;;;;;;;;;5053037;28;20041;-74
2022/01/24 07:37:21;;;;;;;18.63;8.27;;;;;;;;;;5069624;28;20041;-74
2022/01/24 07:39:48;;;;;;;17.65;7.63;;;;;;;;;;5053240;28;20048;-74
2022/01/24 07:42:16;;;;;;;18.92;8.38;;;;;;;;;;5052841;28;20167;-74
2022/01/24 07:44:43;;;;;;;19.02;7.80;;;;;;;;;;5069836;28;20048;-74
2022/01/24 07:47:09;;;;;;;17.95;7.82;;;;;;;;;;5069636;28;20119;-74
2022/01/24 07:49:35;;;;;;;19.02;8.90;;;;;;;;;;5069672;28;20045;-74
2022/01/24 07:52:01;;;;;;;22.45;8.93;;;;;;;;;;5069821;28;20037;-74
2022/01/24 07:54:27;;;;;;;20.05;8.82;;;;;;;;;;5056740;28;20044;-74
2022/01/24 07:56:53;;;;;;;19.00;7.95;;;;;;;;;;5056714;28;20437;-74
2022/01/24 07:59:20;;;;;;;19.02;8.85;;;;;;;;;;5073300;28;20463;-74
2022/01/24 08:01:46;;;;;;;25.13;9.65;;;;;;;;;;5073057;28;20419;-74
2022/01/24 08:04:12;;;;;;;19.55;8.55;;;;;;;;;;5056311;28;20044;-74
2022/01/24 08:06:38;;;;;;;18.90;8.95;;;;;;;;;;5056373;28;20400;-74
2022/01/24 08:09:06;;;;;;;21.83;9.73;;;;;;;;;;5072868;28;20094;-74
2022/01/24 08:11:32;;;;;;;24.10;9.93;;;;;;;;;;5073155;28;20072;-74
2022/01/24 08:13:58;;;;;;;20.80;8.27;;;;;;;;;;5072695;28;20048;-74
2022/01/24 08:16:24;;;;;;;24.38;9.73;;;;;;;;;;5072799;28;20120;-74
2022/01/24 08:18:52;;;;;;;21.15;8.48;;;;;;;;;;5072806;28;20461;-74
2022/01/24 08:21:18;;;;;;;18.95;8.63;;;;;;;;;;5056243;28;20045;-74
2022/01/24 08:23:44;;;;;;;19.98;9.23;;;;;;;;;;5056210;28;20090;-74
2022/01/24 08:26:10;;;;;;;25.90;10.38;;;;;;;;;;5072522;28;20079;-74
2022/01/24 08:28:36;;;;;;;22.33;9.32;;;;;;;;;;5056054;28;20044;-74
2022/01/24 08:31:02;;;;;;;27.60;11.02;;;;;;;;;;5072712;28;20055;-74
2022/01/24 08:33:28;;;;;;;22.35;11.18;;;;;;;;;;5056012;28;20036;-75
2022/01/24 08:35:54;;;;;;;24.15;10.82;;;;;;;;;;5055689;28;20440;-74
2022/01/24 08:38:21;;;;;;;25.00;10.18;;;;;;;;;;5055682;28;20044;-74
2022/01/24 08:40:51;;;;;;;29.83;11.32;;;;;;;;;;5072443;28;20497;-74
2022/01/24 08:43:25;;;;;;;33.53;12.30;;;;;;;;;;5055543;28;20047;-74
2022/01/24 08:45:57;;;;;;;28.27;11.80;;;;;;;;;;5055747;28;20097;-75
2022/01/24 08:48:23;;;;;;;30.10;12.35;;;;;;;;;;5055970;28;20036;-75
2022/01/24 08:50:50;;;;;;;30.05;12.60;;;;;;;;;;5072296;28;20048;-75
2022/01/24 08:53:17;;;;;;;30.40;12.00;;;;;;;;;;5051151;28;20048;-75
2022/01/24 08:55:43;;;;;;;32.13;13.15;;;;;;;;;;5068437;28;20043;-75
2022/01/24 08:58:13;;;;;;;31.85;12.88;;;;;;;;;;5068157;28;20036;-75
2022/01/24 09:00:39;;;;;;;33.88;12.63;;;;;;;;;;5051961;28;20086;-75
2022/01/24 09:03:05;;;;;;;38.72;13.48;;;;;;;;;;5044608;28;20060;-74
2022/01/24 09:05:35;;;;;;;39.40;14.65;;;;;;;;;;5030982;28;20059;-74
2022/01/24 09:08:04;;;;;;;38.08;14.43;;;;;;;;;;5039932;28;20044;-74
2022/01/24 09:10:31;;;;;;;36.05;14.18;;;;;;;;;;5068267;28;20194;-75
2022/01/24 09:12:57;;;;;;;37.28;14.85;;;;;;;;;;5068419;28;20083;-75
2022/01/24 09:15:23;;;;;;;51.20;17.27;;;;;;;;;;5068766;28;20079;-75
2022/01/24 09:17:49;;;;;;;49.45;17.52;;;;;;;;;;5051574;28;20040;-75
2022/01/24 09:20:15;;;;;;;45.90;15.70;;;;;;;;;;5051192;28;20048;-75
2022/01/24 09:22:51;;;;;;;45.25;17.40;;;;;;;;;;5051839;28;20078;-74
2022/01/24 09:25:18;;;;;;;55.22;19.05;;;;;;;;;;5068001;28;20052;-74
2022/01/24 09:27:44;;;;;;;55.42;20.42;;;;;;;;;;5051229;28;20051;-75
2022/01/24 09:30:11;;;;;;;59.63;21.85;;;;;;;;;;5068094;28;20086;-74
2022/01/24 09:32:37;;;;;;;57.80;22.25;;;;;;;;;;5050668;28;20447;-74
2022/01/24 09:35:08;;;;;;;60.55;21.27;;;;;;;;;;5051020;28;20411;-74
2022/01/24 09:37:34;;;;;;;64.05;22.88;;;;;;;;;;5051124;28;20044;-74
2022/01/24 09:40:00;;;;;;;58.05;20.05;;;;;;;;;;5050610;28;20044;-75
2022/01/24 09:42:27;;;;;;;67.20;24.02;;;;;;;;;;5050890;28;20523;-75
2022/01/24 09:44:53;;;;;;;72.57;24.95;;;;;;;;;;5050957;28;20571;-74
2022/01/24 09:47:19;;;;;;;70.72;24.50;;;;;;;;;;5067739;28;20507;-75
2022/01/24 09:49:46;;;;;;;76.53;28.00;;;;;;;;;;5067139;28;20045;-75
2022/01/24 09:52:12;;;;;;;67.22;24.45;;;;;;;;;;5067382;28;20044;-74
2022/01/24 09:54:38;;;;;;;69.85;24.92;;;;;;;;;;5067785;28;20494;-74
2022/01/24 09:57:04;;;;;;;67.63;26.02;;;;;;;;;;5050252;28;20078;-75
2022/01/24 09:59:31;;;;;;;66.75;24.42;;;;;;;;;;5050775;28;20062;-74
2022/01/24 10:01:57;;;;;;;68.80;24.23;;;;;;;;;;5050744;28;20123;-74
2022/01/24 10:04:25;;;;;;;73.38;27.00;;;;;;;;;;5050384;28;20060;-74
2022/01/24 10:06:56;;;;;;;82.53;27.20;;;;;;;;;;5067334;28;20150;-75
2022/01/24 10:09:34;;;;;;;68.70;23.05;;;;;;;;;;5050415;28;20511;-74
2022/01/24 10:12:06;;;;;;;73.10;24.77;;;;;;;;;;5050505;28;20044;-74
2022/01/24 10:17:21;;;;;;;69.68;24.08;;;;;;;;;;5067278;28;20075;-74
2022/01/24 10:19:47;;;;;;;77.72;25.92;;;;;;;;;;5066787;28;20432;-75
2022/01/24 10:22:13;;;;;;;71.45;24.30;;;;;;;;;;5049833;28;20040;-74
2022/01/24 10:24:44;;;;;;;74.50;25.38;;;;;;;;;;5050313;28;20041;-75
2022/01/24 10:27:16;;;;;;;63.07;24.43;;;;;;;;;;5050513;28;20504;-74
2022/01/24 10:29:47;;;;;;;65.32;24.08;;;;;;;;;;5066791;28;20044;-74
2022/01/24 10:32:33;;;;;;;66.10;23.27;;;;;;;;;;5066339;28;20041;-75
2022/01/24 10:35:18;;;;;;;65.00;24.58;;;;;;;;;;5056447;28;20515;-74
2022/01/24 10:37:47;;;;;;;71.47;23.80;;;;;;;;;;5066808;28;20123;-74
2022/01/24 10:40:20;;;;;;;60.55;21.50;;;;;;;;;;5066954;28;20052;-74
2022/01/24 10:42:52;;;;;;;64.22;23.63;;;;;;;;;;5066706;28;20519;-74
2022/01/24 10:45:22;;;;;;;65.15;25.20;;;;;;;;;;5066644;28;20083;-74
2022/01/24 10:47:50;;;;;;;62.78;24.35;;;;;;;;;;5050357;28;20044;-75
2022/01/24 10:50:24;;;;;;;63.85;23.65;;;;;;;;;;5066479;28;20409;-75
2022/01/24 10:52:50;;;;;;;54.13;20.88;;;;;;;;;;5068037;28;20512;-75
2022/01/24 10:55:21;;;;;;;58.90;21.90;;;;;;;;;;5050867;28;20041;-75
2022/01/24 10:57:48;;;;;;;65.93;26.38;;;;;;;;;;5067298;28;20040;-75
2022/01/24 11:00:16;;;;;;;57.38;23.98;;;;;;;;;;5067506;28;20046;-74
2022/01/24 11:02:43;;;;;;;63.45;24.27;;;;;;;;;;5067590;28;20075;-75
2022/01/24 11:05:12;;;;;;;70.45;26.63;;;;;;;;;;5067647;28;20044;-74
2022/01/24 11:07:48;;;;;;;63.63;23.67;;;;;;;;;;5066983;28;20073;-74
2022/01/24 11:10:15;;;;;;;59.67;23.25;;;;;;;;;;5066234;28;20045;-74
2022/01/24 11:12:41;;;;;;;68.93;24.25;;;;;;;;;;5066436;28;20127;-74
2022/01/24 11:15:07;;;;;;;60.30;23.27;;;;;;;;;;5066271;28;20143;-74
2022/01/24 11:17:34;;;;;;;65.40;24.88;;;;;;;;;;5050064;28;20040;-74
2022/01/24 11:20:02;;;;;;;65.93;24.08;;;;;;;;;;5065926;28;20523;-74
2022/01/24 11:22:30;;;;;;;70.28;25.60;;;;;;;;;;5066673;28;20052;-75
2022/01/24 11:25:00;;;;;;;65.78;23.85;;;;;;;;;;5066785;28;20052;-75
2022/01/24 11:27:27;;;;;;;61.50;22.88;;;;;;;;;;5067304;28;20163;-74
2022/01/24 11:29:54;;;;;;;67.25;23.65;;;;;;;;;;5070214;28;20044;-74
2022/01/24 11:32:40;;;;;;;65.70;23.83;;;;;;;;;;5053314;28;20044;-74
2022/01/24 11:35:06;;;;;;;67.95;25.67;;;;;;;;;;5053324;28;20070;-75
2022/01/24 11:37:40;;;;;;;64.82;25.15;;;;;;;;;;5053288;28;20090;-75
2022/01/24 11:40:11;;;;;;;67.88;23.65;;;;;;;;;;5053340;28;20489;-74
2022/01/24 11:42:37;;;;;;;;;;;;;;;;;;5053780;28;20230;-74
2022/01/24 11:45:10;;;;;;;69.30;25.27;;;;;;;;;;5052757;28;19928;-74
2022/01/24 11:47:37;;;;;;;68.78;26.67;;;;;;;;;;5053059;28;20048;-74
2022/01/24 11:50:26;;;;;;;67.25;23.27;;;;;;;;;;5052172;28;20036;-75
2022/01/24 11:52:52;;;;;;;74.40;25.70;;;;;;;;;;5043833;28;20039;-74
2022/01/24 11:55:31;;;;;;;66.95;24.40;;;;;;;;;;5043635;28;20638;-75
2022/01/24 11:58:07;;;;;;;79.03;27.25;;;;;;;;;;5059536;28;20442;-75
2022/01/24 12:00:38;;;;;;;72.55;26.98;;;;;;;;;;5043933;28;20147;-75
2022/01/24 12:03:34;;;;;;;74.60;26.13;;;;;;;;;;5051693;28;20057;-75
2022/01/24 12:06:09;;;;;;;72.75;26.38;;;;;;;;;;5033082;28;20048;-74
2022/01/24 12:08:35;;;;;;;73.10;26.92;;;;;;;;;;5032353;28;20547;-74
2022/01/24 12:11:11;;;;;;;80.10;27.55;;;;;;;;;;5049790;28;20044;-75
2022/01/24 12:13:41;;;;;;;74.85;27.27;;;;;;;;;;5033270;28;20109;-74
2022/01/24 12:16:09;;;;;;;70.50;26.90;;;;;;;;;;5050609;28;20411;-75
2022/01/24 12:18:35;;;;;;;65.55;23.67;;;;;;;;;;5036150;28;20037;-75
2022/01/24 12:21:01;;;;;;;65.22;25.10;;;;;;;;;;5052793;28;20041;-74
2022/01/24 12:23:41;;;;;;;66.85;25.63;;;;;;;;;;5036452;28;20114;-74
2022/01/24 12:26:10;;;;;;;62.35;23.90;;;;;;;;;;5036016;28;20044;-74
2022/01/24 12:28:42;;;;;;;57.28;22.58;;;;;;;;;;5035945;28;20037;-75
2022/01/24 12:31:17;;;;;;;54.58;23.08;;;;;;;;;;5052517;28;20044;-74
2022/01/24 12:33:45;;;;;;;58.10;24.17;;;;;;;;;;5052655;28;20040;-75
2022/01/24 12:36:12;;;;;;;50.50;21.15;;;;;;;;;;5035750;28;20037;-75
2022/01/24 12:38:42;;;;;;;53.03;20.58;;;;;;;;;;5052324;28;20048;-75
2022/01/24 12:41:15;;;;;;;54.90;20.25;;;;;;;;;;5047804;28;20036;-75
2022/01/24 12:43:54;;;;;;;54.97;23.02;;;;;;;;;;5071853;28;20044;-75
2022/01/24 12:46:21;;;;;;;46.42;19.92;;;;;;;;;;5055573;28;20079;-75
2022/01/24 12:48:49;;;;;;;51.35;19.75;;;;;;;;;;5055371;28;20047;-74
2022/01/24 12:51:16;;;;;;;55.60;21.75;;;;;;;;;;5072338;28;20040;-74
2022/01/24 12:53:42;;;;;;;49.58;20.38;;;;;;;;;;5055496;28;20032;-74
2022/01/24 12:56:08;;;;;;;55.25;22.33;;;;;;;;;;5071542;28;20029;-75
2022/01/24 12:58:35;;;;;;;59.78;21.77;;;;;;;;;;5072014;28;20037;-74
2022/01/24 13:01:01;;;;;;;63.38;24.92;;;;;;;;;;5055368;28;20381;-75
2022/01/24 13:03:27;;;;;;;58.78;24.77;;;;;;;;;;5055100;28;20062;-75
2022/01/24 13:05:53;;;;;;;59.28;23.42;;;;;;;;;;5071886;28;20411;-74
2022/01/24 13:08:19;;;;;;;58.47;22.20;;;;;;;;;;5071837;28;20040;-75
2022/01/24 13:10:47;;;;;;;56.65;23.23;;;;;;;;;;5055103;28;20466;-75
2022/01/24 13:13:15;;;;;;;61.53;24.73;;;;;;;;;;5072152;28;20037;-74
2022/01/24 13:21:17;;;;;;;50.25;20.90;;;;;;;;;;5071694;28;20068;-74
2022/01/24 13:23:48;;;;;;;57.13;22.03;;;;;;;;;;5067848;28;20045;-74
2022/01/24 13:26:14;;;;;;;57.15;22.05;;;;;;;;;;5051488;28;20037;-74
2022/01/24 13:28:40;;;;;;;54.80;22.02;;;;;;;;;;5035094;28;20037;-74
2022/01/24 13:31:07;;;;;;;49.75;19.90;;;;;;;;;;5034785;28;20496;-74
2022/01/24 13:33:35;;;;;;;53.35;20.88;;;;;;;;;;5034852;28;20041;-75
2022/01/24 13:36:04;;;;;;;52.50;21.88;;;;;;;;;;5051333;28;20051;-75
2022/01/24 13:38:37;;;;;;;49.78;19.90;;;;;;;;;;5034654;28;20128;-75
2022/01/24 13:41:05;;;;;;;55.50;21.65;;;;;;;;;;5059555;28;20381;-74
2022/01/24 13:43:31;;;;;;;50.15;21.90;;;;;;;;;;5061073;28;20040;-75
2022/01/24 13:45:58;;;;;;;46.22;17.88;;;;;;;;;;5044160;28;20065;-75
2022/01/24 13:48:24;;;;;;;45.85;18.98;;;;;;;;;;5059595;28;20036;-75
2022/01/24 13:50:55;;;;;;;43.78;17.45;;;;;;;;;;5043896;28;20135;-75
2022/01/24 13:53:28;;;;;;;42.10;17.50;;;;;;;;;;5061803;28;20515;-75
2022/01/24 13:55:55;;;;;;;41.90;18.90;;;;;;;;;;5060553;28;20041;-75
2022/01/24 13:58:25;;;;;;;44.15;18.70;;;;;;;;;;5059835;28;20037;-75
2022/01/24 14:01:01;;;;;;;48.63;19.27;;;;;;;;;;5044937;28;20037;-74
2022/01/24 14:03:27;;;;;;;43.92;18.73;;;;;;;;;;5062052;28;20543;-75
2022/01/24 14:06:12;;;;;;;40.28;16.00;;;;;;;;;;5060509;28;20051;-75
2022/01/24 14:08:38;;;;;;;40.97;17.67;;;;;;;;;;5060707;28;20106;-76
2022/01/24 14:11:12;;;;;;;48.45;19.00;;;;;;;;;;5034428;28;20049;-76
2022/01/24 14:13:38;;;;;;;46.65;17.77;;;;;;;;;;5034259;28;20048;-75
2022/01/24 14:16:11;;;;;;;40.33;17.48;;;;;;;;;;5050668;28;20056;-75
2022/01/24 14:18:37;;;;;;;43.53;17.25;;;;;;;;;;5050463;28;20128;-75
2022/01/24 14:21:11;;;;;;;39.17;16.88;;;;;;;;;;5050483;28;20041;-75
2022/01/24 14:23:42;;;;;;;39.80;16.88;;;;;;;;;;5033830;28;20045;-75
2022/01/24 14:26:28;;;;;;;39.30;16.63;;;;;;;;;;5050534;28;20489;-75
2022/01/24 14:29:06;;;;;;;45.67;19.15;;;;;;;;;;5033757;28;20037;-75
2022/01/24 14:31:32;;;;;;;39.72;16.35;;;;;;;;;;5050351;28;20051;-75
2022/01/24 14:34:03;;;;;;;38.42;15.88;;;;;;;;;;5050296;28;20435;-75
2022/01/24 14:36:29;;;;;;;42.55;17.30;;;;;;;;;;5050599;28;20087;-75
2022/01/24 14:38:57;;;;;;;43.88;19.65;;;;;;;;;;5033961;28;20037;-75
2022/01/24 14:41:32;;;;;;;45.15;17.17;;;;;;;;;;5050554;28;20123;-75
2022/01/24 14:46:44;;;;;;;49.53;20.13;;;;;;;;;;5050336;28;20040;-74
2022/01/24 14:49:11;;;;;;;45.10;19.08;;;;;;;;;;5033491;28;20481;-75
2022/01/24 14:51:39;;;;;;;46.35;17.85;;;;;;;;;;5050408;28;20542;-75
2022/01/24 14:54:06;;;;;;;41.17;17.75;;;;;;;;;;5050488;28;20033;-74
2022/01/24 14:56:33;;;;;;;45.42;18.83;;;;;;;;;;5039974;28;20115;-74
2022/01/24 14:59:02;;;;;;;46.53;18.13;;;;;;;;;;5053538;28;20040;-75
2022/01/24 15:01:28;;;;;;;43.88;18.73;;;;;;;;;;5070534;28;20036;-75
2022/01/24 15:03:55;;;;;;;38.03;16.40;;;;;;;;;;5074126;28;20063;-75
2022/01/24 15:06:21;;;;;;;46.00;18.63;;;;;;;;;;5057475;28;20100;-75
2022/01/24 15:08:48;;;;;;;49.47;20.35;;;;;;;;;;5057828;28;20553;-74
2022/01/24 15:11:16;;;;;;;45.63;19.55;;;;;;;;;;5057571;28;20072;-75
2022/01/24 15:13:49;;;;;;;41.85;18.15;;;;;;;;;;5057743;28;20129;-75
2022/01/24 15:16:18;;;;;;;44.58;18.70;;;;;;;;;;5074178;28;20412;-75
2022/01/24 15:24:31;;;;;;;48.35;19.65;;;;;;;;;;5073856;28;20052;-75
2022/01/24 15:26:58;;;;;;;51.97;20.38;;;;;;;;;;5057399;28;20131;-75
2022/01/24 15:29:24;;;;;;;42.40;18.55;;;;;;;;;;5073823;28;20064;-75
2022/01/24 15:31:50;;;;;;;45.55;18.05;;;;;;;;;;5073737;28;20040;-75
2022/01/24 15:34:19;;;;;;;46.60;18.70;;;;;;;;;;5057279;28;20480;-75
2022/01/24 15:36:45;;;;;;;47.67;20.25;;;;;;;;;;5073737;28;20043;-75
2022/01/24 15:39:11;;;;;;;53.00;20.52;;;;;;;;;;5065896;28;20037;-75
2022/01/24 15:41:56;;;;;;;53.65;22.80;;;;;;;;;;5053715;28;20457;-75
2022/01/24 15:47:15;;;;;;;54.67;21.02;;;;;;;;;;5059187;28;20124;-74
2022/01/24 15:49:42;;;;;;;52.70;21.88;;;;;;;;;;5042353;28;20378;-74
2022/01/24 15:52:08;;;;;;;49.15;19.90;;;;;;;;;;5058522;28;20037;-75
2022/01/24 15:54:34;;;;;;;48.45;20.40;;;;;;;;;;5044088;28;20040;-75
2022/01/24 15:59:46;;;;;;;51.42;20.33;;;;;;;;;;5059556;28;20202;-74
2022/01/24 16:02:12;;;;;;;52.95;19.75;;;;;;;;;;5043593;28;20079;-74
2022/01/24 16:04:38;;;;;;;48.63;18.88;;;;;;;;;;5069224;28;20456;-75
2022/01/24 16:07:05;;;;;;;53.88;20.30;;;;;;;;;;5069775;28;20373;-75
2022/01/24 16:09:31;;;;;;;58.25;20.77;;;;;;;;;;5052810;28;20505;-73
2022/01/24 16:11:57;;;;;;;44.63;18.23;;;;;;;;;;5052816;28;20057;-74
2022/01/24 16:14:23;;;;;;;55.47;19.80;;;;;;;;;;5052393;28;20159;-75
2022/01/24 16:16:50;;;;;;;48.17;19.58;;;;;;;;;;5069416;28;20042;-74
2022/01/24 16:19:17;;;;;;;51.45;19.42;;;;;;;;;;5069532;28;20131;-75
2022/01/24 16:22:01;;;;;;;50.17;19.13;;;;;;;;;;5069318;28;20086;-74